Time;durP1;ratioP1;P1;durP2;ratioP2;P2;SDS_P1;SDS_P2;PMS_P1;PMS_P2;Temp;Humidity;BMP_temperature;BMP_pressure;BME280_temperature;BME280_humidity;BME280_pressure;Samples;Min_cycle;Max_cycle;Signal;HPM_P1;HPM_P2
2022/06/13 00:00:09;;;;;;;;;2.67;2.67;;;;;16.97;49.97;101863.53;5094682;27;45369;-78
2022/06/13 00:02:36;;;;;;;;;3.67;3.00;;;;;16.88;50.78;101863.63;5082300;28;45794;-78
2022/06/13 00:05:02;;;;;;;;;2.33;1.33;;;;;16.81;50.83;101860.03;5092836;27;45283;-77
2022/06/13 00:07:28;;;;;;;;;4.67;4.00;;;;;16.65;51.12;101853.03;5082278;27;45382;-78
2022/06/13 00:09:53;;;;;;;;;2.00;2.00;;;;;16.64;51.23;101862.13;5098169;27;45816;-79
2022/06/13 00:12:19;;;;;;;;;4.00;4.00;;;;;16.52;51.25;101854.53;5081721;27;45533;-78
2022/06/13 00:14:44;;;;;;;;;4.00;3.00;;;;;16.39;51.92;101840.94;5082293;27;46651;-78
2022/06/13 00:17:10;;;;;;;;;4.00;2.33;;;;;16.39;52.01;101857.88;5081806;27;45363;-78
2022/06/13 00:19:36;;;;;;;;;4.00;2.00;;;;;16.37;52.47;101856.41;5082397;27;45360;-78
2022/06/13 00:22:02;;;;;;;;;4.00;3.00;;;;;16.41;52.88;101863.88;5082173;28;45572;-78
2022/06/13 00:24:27;;;;;;;;;3.33;2.67;;;;;16.28;52.34;101847.59;5082061;27;47428;-77
2022/06/13 00:26:53;;;;;;;;;3.67;2.33;;;;;16.34;52.44;101851.41;5082165;27;45285;-78
2022/06/13 00:29:18;;;;;;;;;2.00;2.00;;;;;16.36;53.62;101863.63;5081899;28;45327;-78
2022/06/13 00:31:43;;;;;;;;;4.00;2.33;;;;;16.31;53.26;101860.63;5080336;27;47065;-78
2022/06/13 00:34:09;;;;;;;;;4.00;2.67;;;;;16.25;53.11;101856.03;5081686;27;45855;-78
2022/06/13 00:36:34;;;;;;;;;5.67;3.00;;;;;16.27;53.38;101870.94;5077096;28;45328;-78
2022/06/13 00:38:59;;;;;;;;;3.00;2.00;;;;;16.15;53.46;101862.50;5071782;28;45271;-79
2022/06/13 00:41:30;;;;;;;;;3.00;3.00;;;;;16.19;53.76;101872.88;5081448;27;45334;-79
2022/06/13 00:43:56;;;;;;;;;5.00;3.67;;;;;16.08;53.74;101866.09;5081735;27;45422;-78
2022/06/13 00:46:34;;;;;;;;;4.33;2.67;;;;;16.01;54.45;101880.22;5081286;27;45518;-78
2022/06/13 00:49:09;;;;;;;;;5.33;3.67;;;;;15.93;54.49;101869.56;5080615;28;45383;-78
2022/06/13 00:51:39;;;;;;;;;1.33;1.00;;;;;15.89;54.72;101871.78;5081361;27;45156;-78
2022/06/13 00:54:05;;;;;;;;;2.00;2.00;;;;;15.82;54.88;101870.84;5097316;27;46401;-78
2022/06/13 00:56:35;;;;;;;;;5.67;5.00;;;;;15.65;54.94;101846.88;5096943;27;45360;-78
2022/06/13 00:59:03;;;;;;;;;4.00;3.00;;;;;15.69;55.75;101860.75;5081791;27;45297;-78
2022/06/13 01:01:30;;;;;;;;;3.00;3.00;;;;;15.68;55.80;101860.94;5081113;27;45467;-78
2022/06/13 01:03:58;;;;;;;;;4.00;4.00;;;;;15.67;55.94;101857.41;5082530;27;46253;-78
2022/06/13 01:06:26;;;;;;;;;3.00;3.00;;;;;15.60;56.26;101843.06;5085450;27;45335;-78
2022/06/13 01:08:52;;;;;;;;;3.33;3.33;;;;;15.63;56.31;101848.88;5078992;28;45729;-78
2022/06/13 01:11:21;;;;;;;;;3.00;3.00;;;;;15.52;56.64;101830.56;5081130;27;45476;-79
2022/06/13 01:14:02;;;;;;;;;4.33;3.00;;;;;15.58;57.01;101842.41;5079966;27;45398;-78
2022/06/13 01:16:59;;;;;;;;;5.67;5.00;;;;;15.53;56.99;101833.06;5081297;27;45373;-78
2022/06/13 01:19:56;;;;;;;;;2.00;1.67;;;;;15.45;57.15;101829.63;5081318;27;45385;-78
2022/06/13 01:22:37;;;;;;;;;3.33;3.33;;;;;15.47;57.54;101836.47;5079674;27;46423;-78
2022/06/13 01:25:39;;;;;;;;;3.33;3.33;;;;;15.49;57.31;101833.59;5081038;27;46265;-79
2022/06/13 01:28:32;;;;;;;;;4.00;3.33;;;;;15.51;57.59;101840.44;5075250;27;45744;-78
2022/06/13 01:31:13;;;;;;;;;4.33;4.33;;;;;15.52;57.64;101838.59;5079366;27;45468;-78
2022/06/13 01:34:23;;;;;;;;;5.00;4.00;;;;;15.56;57.60;101839.09;5079502;27;46400;-78
2022/06/13 01:37:00;;;;;;;;;5.33;4.33;;;;;15.58;57.91;101835.22;5080795;27;45516;-78
2022/06/13 01:39:37;;;;;;;;;5.67;5.67;;;;;15.50;57.43;101814.66;5080730;28;45286;-78
2022/06/13 01:42:02;;;;;;;;;3.67;3.67;;;;;15.53;57.52;101832.22;5080978;27;45232;-78
2022/06/13 01:44:44;;;;;;;;;4.67;4.67;;;;;15.47;58.46;101832.97;5080673;27;45684;-78
2022/06/13 01:47:21;;;;;;;;;6.00;5.00;;;;;15.36;57.77;101821.66;5080641;27;46242;-78
2022/06/13 01:50:06;;;;;;;;;6.67;3.33;;;;;15.36;59.06;101835.03;5080593;27;45284;-79
2022/06/13 01:52:44;;;;;;;;;2.67;2.00;;;;;15.33;58.76;101829.22;5096391;27;45252;-78
2022/06/13 01:55:24;;;;;;;;;7.00;5.33;;;;;15.18;59.39;101815.78;5080305;27;45556;-78
2022/06/13 01:58:09;;;;;;;;;4.00;4.00;;;;;15.20;59.44;101821.78;5096038;27;48047;-79
2022/06/13 02:00:36;;;;;;;;;4.00;4.00;;;;;15.17;59.61;101833.69;5079314;28;45379;-79
2022/06/13 02:03:32;;;;;;;;;7.67;6.67;;;;;15.19;59.53;101829.00;5080449;27;45294;-78
2022/06/13 02:06:03;;;;;;;;;3.33;2.33;;;;;15.14;59.56;101834.03;5086273;27;46155;-78
2022/06/13 02:08:34;;;;;;;;;6.67;5.00;;;;;15.11;59.67;101837.06;5073158;28;48291;-78
2022/06/13 02:11:08;;;;;;;;;4.00;4.00;;;;;15.07;59.81;101833.06;5080305;27;45616;-78
2022/06/13 02:13:42;;;;;;;;;5.33;5.33;;;;;15.03;60.09;101837.97;5080334;27;45318;-78
2022/06/13 02:16:15;;;;;;;;;4.00;3.33;;;;;14.99;60.41;101834.81;5080099;28;45353;-78
2022/06/13 02:18:57;;;;;;;;;3.33;3.33;;;;;14.92;60.58;101831.16;5078580;28;47074;-79
2022/06/13 02:21:32;;;;;;;;;5.00;5.00;;;;;14.93;60.62;101830.16;5080250;27;45377;-78
2022/06/13 02:24:00;;;;;;;;;9.00;7.33;;;;;14.83;60.92;101824.19;5080025;27;45385;-78
2022/06/13 02:26:32;;;;;;;;;5.00;4.00;;;;;14.89;61.31;101829.69;5080054;27;45495;-79
2022/06/13 02:29:05;;;;;;;;;8.00;6.00;;;;;14.83;61.16;101829.53;5078629;28;47356;-78
2022/06/13 02:31:39;;;;;;;;;3.00;3.00;;;;;14.87;61.25;101831.69;5079859;27;45444;-78
2022/06/13 02:34:12;;;;;;;;;4.67;4.67;;;;;14.76;61.52;101818.69;5095759;27;45357;-78
2022/06/13 02:36:48;;;;;;;;;3.33;3.33;;;;;14.79;61.89;101820.22;5079744;27;45239;-78
2022/06/13 02:39:22;;;;;;;;;6.33;5.67;;;;;14.74;61.70;101810.00;5079865;27;45438;-79
2022/06/13 02:42:01;;;;;;;;;4.00;3.00;;;;;14.84;62.07;101828.53;5079806;28;45700;-78
2022/06/13 02:44:36;;;;;;;;;6.00;4.67;;;;;14.83;61.90;101826.88;5079845;28;45354;-78
2022/06/13 02:47:13;;;;;;;;;4.67;4.67;;;;;14.75;62.44;101817.84;5079472;27;45543;-78
2022/06/13 02:50:04;;;;;;;;;6.33;6.33;;;;;14.74;62.27;101816.19;5074976;28;48417;-78
2022/06/13 02:52:40;;;;;;;;;4.00;4.00;;;;;14.76;62.37;101819.50;5068427;28;45327;-78
2022/06/13 02:55:10;;;;;;;;;4.00;3.67;;;;;14.80;62.31;101827.22;5095315;27;45411;-78
2022/06/13 02:57:59;;;;;;;;;6.00;5.00;;;;;14.82;62.41;101830.56;5078239;28;45486;-78
2022/06/13 03:00:41;;;;;;;;;4.67;4.00;;;;;14.85;62.25;101835.56;5095156;27;46151;-78
2022/06/13 03:03:30;;;;;;;;;6.00;6.00;;;;;14.87;62.81;101836.22;5079668;27;45457;-79
2022/06/13 03:06:09;;;;;;;;;5.67;5.67;;;;;14.87;62.45;101831.69;5090234;27;45373;-77
2022/06/13 03:08:52;;;;;;;;;5.67;4.67;;;;;14.85;62.59;101830.22;5075647;28;47094;-78
2022/06/13 03:11:36;;;;;;;;;6.00;4.00;;;;;14.82;62.92;101838.59;5077794;28;48218;-78
2022/06/13 03:14:39;;;;;;;;;5.33;5.00;;;;;14.78;62.76;101843.44;5079239;28;45523;-78
2022/06/13 03:17:14;;;;;;;;;6.00;6.00;;;;;14.74;62.74;101842.94;5079128;27;45272;-78
2022/06/13 03:20:01;;;;;;;;;5.33;4.67;;;;;14.67;63.28;101838.47;5094806;27;46999;-78
2022/06/13 03:22:45;;;;;;;;;6.33;6.33;;;;;14.58;63.35;101835.81;5079113;27;45641;-78
2022/06/13 03:25:30;;;;;;;;;6.00;5.00;;;;;14.64;63.50;101851.19;5077996;27;45829;-78
2022/06/13 03:28:03;;;;;;;;;10.00;7.00;;;;;14.58;63.66;101846.50;5079231;27;45316;-78
2022/06/13 03:30:32;;;;;;;;;7.00;5.00;;;;;14.49;63.81;101840.38;5078972;27;45476;-78
2022/06/13 03:35:51;;;;;;;;;4.00;4.00;;;;;14.52;64.23;101857.94;5080189;28;45280;-78
2022/06/13 03:38:25;;;;;;;;;4.67;4.00;;;;;14.41;64.51;101851.09;5082898;27;45375;-78
2022/06/13 03:40:54;;;;;;;;;6.00;6.00;;;;;14.47;64.40;101862.94;5082738;27;45292;-78
2022/06/13 03:43:26;;;;;;;;;5.00;5.00;;;;;14.35;64.44;101859.81;5082346;27;45429;-78
2022/06/13 03:45:56;;;;;;;;;5.67;5.33;;;;;14.40;65.17;101868.19;5082429;27;45356;-78
2022/06/13 03:48:34;;;;;;;;;5.67;5.00;;;;;14.33;65.51;101859.16;5082549;27;45322;-79
2022/06/13 03:51:04;;;;;;;;;7.00;6.33;;;;;14.25;65.34;101847.47;5082575;27;45276;-78
2022/06/13 03:53:39;;;;;;;;;6.67;6.67;;;;;14.37;65.21;101863.97;5097913;27;47079;-78
2022/06/13 03:56:20;;;;;;;;;5.67;5.67;;;;;14.37;65.56;101865.84;5082378;27;45322;-78
2022/06/13 03:58:52;;;;;;;;;5.67;5.67;;;;;14.37;65.60;101865.84;5098185;27;45270;-78
2022/06/13 04:01:25;;;;;;;;;5.67;5.67;;;;;14.32;65.42;101855.66;5097915;27;46235;-78
2022/06/13 04:03:51;;;;;;;;;6.67;6.00;;;;;14.29;65.77;101857.81;5082796;27;46414;-78
2022/06/13 04:06:37;;;;;;;;;8.33;7.00;;;;;14.33;65.99;101868.00;5091908;27;45432;-78
2022/06/13 04:09:17;;;;;;;;;4.33;4.33;;;;;14.25;66.24;101860.03;5082315;27;45437;-78
2022/06/13 04:12:11;;;;;;;;;4.33;4.33;;;;;14.27;66.75;101861.50;5077265;28;46114;-78
2022/06/13 04:15:01;;;;;;;;;7.67;6.33;;;;;14.26;66.33;101862.53;5071163;28;46409;-78
2022/06/13 04:17:57;;;;;;;;;7.67;5.00;;;;;14.31;66.74;101866.53;5081742;27;45431;-78
2022/06/13 04:20:44;;;;;;;;;6.00;4.00;;;;;14.20;67.32;101859.69;5082121;28;45382;-78
2022/06/13 04:23:14;;;;;;;;;9.33;9.00;;;;;14.21;67.29;101861.34;5081997;27;45275;-78
2022/06/13 04:25:46;;;;;;;;;7.33;7.33;;;;;14.20;67.20;101857.88;5081586;27;45358;-78
2022/06/13 04:28:20;;;;;;;;;5.00;5.00;;;;;14.26;67.61;101869.72;5082108;27;45252;-78
2022/06/13 04:30:46;;;;;;;;;8.00;7.00;;;;;14.26;67.84;101867.03;5081626;27;45341;-78
2022/06/13 04:33:15;;;;;;;;;11.33;7.00;;;;;14.31;67.89;101869.19;5077071;28;46084;-77
2022/06/13 04:35:41;;;;;;;;;7.00;7.00;;;;;14.37;67.66;101877.34;5074596;28;46934;-78
2022/06/13 04:38:10;;;;;;;;;9.00;9.00;;;;;14.37;67.33;101872.00;5080387;28;45297;-78
2022/06/13 04:40:40;;;;;;;;;7.67;6.00;;;;;14.40;66.93;101870.84;5082025;28;45291;-78
2022/06/13 04:43:09;;;;;;;;;8.00;8.00;;;;;14.44;67.34;101877.50;5081491;27;45383;-78
2022/06/13 04:45:49;;;;;;;;;10.00;7.67;;;;;14.45;67.27;101875.66;5097338;27;47166;-79
2022/06/13 04:48:15;;;;;;;;;6.00;6.00;;;;;14.45;67.59;101873.81;5080271;27;45255;-78
2022/06/13 04:50:49;;;;;;;;;8.67;8.67;;;;;14.46;67.53;101875.47;5080320;28;45480;-78
2022/06/13 04:53:25;;;;;;;;;8.00;8.00;;;;;14.48;67.53;101881.50;5081606;27;45235;-78
2022/06/13 04:55:53;;;;;;;;;9.00;8.00;;;;;14.46;67.69;101869.31;5079956;27;48481;-78
2022/06/13 04:58:27;;;;;;;;;8.33;8.33;;;;;14.44;67.27;101860.63;5081356;27;45331;-78
2022/06/13 05:01:09;;;;;;;;;13.33;9.67;;;;;14.49;67.63;101869.78;5081657;27;45616;-78
2022/06/13 05:03:42;;;;;;;;;11.00;10.67;;;;;14.59;67.52;101890.16;5081301;27;45278;-78
2022/06/13 05:06:20;;;;;;;;;9.67;9.00;;;;;14.60;67.70;101886.47;5090786;27;46140;-78
2022/06/13 05:08:55;;;;;;;;;11.67;10.67;;;;;14.61;67.63;101883.63;5081164;28;45285;-78
2022/06/13 05:11:26;;;;;;;;;10.00;9.67;;;;;14.64;67.85;101888.63;5081378;27;45330;-78
2022/06/13 05:13:59;;;;;;;;;8.67;8.67;;;;;14.68;68.28;101888.28;5081224;27;45484;-78
2022/06/13 05:16:24;;;;;;;;;7.67;7.67;;;;;14.70;67.70;101891.63;5081184;27;46363;-78
2022/06/13 05:19:23;;;;;;;;;10.00;10.00;;;;;14.75;67.78;101897.28;5081000;28;45409;-78
2022/06/13 05:22:06;;;;;;;;;9.00;7.67;;;;;14.74;67.79;101887.59;5081348;27;45279;-78
2022/06/13 05:24:46;;;;;;;;;9.67;8.33;;;;;14.79;68.06;101876.41;5081193;27;45394;-78
2022/06/13 05:27:12;;;;;;;;;8.00;8.00;;;;;14.82;67.71;101873.38;5080833;27;45439;-78
2022/06/13 05:29:37;;;;;;;;;12.00;12.00;;;;;14.89;68.04;101875.19;5081189;27;45286;-79
2022/06/13 05:32:06;;;;;;;;;11.00;10.00;;;;;14.94;67.70;101881.84;5096688;27;45304;-79
2022/06/13 05:34:39;;;;;;;;;12.00;11.00;;;;;15.09;67.80;101887.28;5080802;27;45468;-79
2022/06/13 05:37:05;;;;;;;;;10.67;10.33;;;;;15.15;67.57;101890.09;5080998;27;46209;-78
2022/06/13 05:39:31;;;;;;;;;12.00;10.33;;;;;15.24;67.35;101888.19;5080719;28;45359;-78
2022/06/13 05:41:56;;;;;;;;;11.33;9.67;;;;;15.31;67.63;101904.38;5080926;27;45345;-79
2022/06/13 05:44:22;;;;;;;;;9.00;8.00;;;;;15.36;67.23;101895.81;5096410;27;46102;-78
2022/06/13 05:46:47;;;;;;;;;8.67;8.67;;;;;15.39;67.19;101892.78;5080494;27;46054;-78
2022/06/13 05:49:13;;;;;;;;;11.00;9.00;;;;;15.49;66.65;101904.09;5079467;28;45456;-78
2022/06/13 05:51:41;;;;;;;;;11.00;11.00;;;;;15.53;67.09;101907.25;5096515;27;45238;-78
2022/06/13 05:54:09;;;;;;;;;21.67;18.67;;;;;15.56;66.53;101909.56;5080575;27;45303;-77
2022/06/13 05:56:36;;;;;;;;;16.00;11.33;;;;;15.68;66.96;101912.66;5096016;27;47683;-78
2022/06/13 05:59:01;;;;;;;;;14.33;12.33;;;;;15.64;67.12;101909.53;5080073;28;45335;-78
2022/06/13 06:01:26;;;;;;;;;13.67;10.00;;;;;15.73;67.16;101914.81;5080447;27;45311;-78
2022/06/13 06:03:51;;;;;;;;;11.00;8.33;;;;;15.72;66.80;101910.47;5081218;27;45484;-78
2022/06/13 06:06:23;;;;;;;;;11.67;11.67;;;;;15.88;67.14;101917.53;5090324;27;45992;-78
2022/06/13 06:08:50;;;;;;;;;17.33;17.00;;;;;15.93;67.06;101923.19;5078828;28;45621;-78
2022/06/13 06:11:16;;;;;;;;;13.67;13.67;;;;;15.92;67.22;101915.31;5080358;27;45367;-78
2022/06/13 06:13:41;;;;;;;;;11.67;10.67;;;;;16.07;67.18;101931.47;5095752;27;46410;-78
2022/06/13 06:16:10;;;;;;;;;16.33;15.00;;;;;16.01;66.87;101906.19;5080086;27;45415;-78
2022/06/13 06:18:35;;;;;;;;;12.00;12.00;;;;;16.12;66.92;101923.72;5078892;28;45303;-79
2022/06/13 06:21:00;;;;;;;;;11.00;10.33;;;;;16.14;66.57;101921.69;5080312;28;45251;-78
2022/06/13 06:23:26;;;;;;;;;16.33;12.33;;;;;16.18;66.69;101920.28;5080305;27;45444;-78
2022/06/13 06:25:52;;;;;;;;;12.00;12.00;;;;;16.35;66.99;101939.75;5080014;28;45440;-78
2022/06/13 06:28:21;;;;;;;;;11.67;11.33;;;;;16.40;66.36;101941.84;5080381;27;45204;-78
2022/06/13 06:30:46;;;;;;;;;10.67;10.00;;;;;16.40;66.74;101945.38;5079952;28;45295;-78
2022/06/13 06:33:12;;;;;;;;;15.67;12.67;;;;;16.51;66.30;101946.78;5078777;28;46302;-78
2022/06/13 06:35:39;;;;;;;;;10.00;10.00;;;;;16.17;66.06;101886.47;5079937;28;45318;-78
2022/06/13 06:38:06;;;;;;;;;10.33;9.67;;;;;16.65;66.16;101947.78;5079784;27;45271;-78
2022/06/13 06:40:31;;;;;;;;;8.00;7.33;;;;;16.73;65.32;101948.75;5080167;27;45310;-78
2022/06/13 06:42:57;;;;;;;;;8.00;8.00;;;;;16.74;65.64;101936.97;5079536;27;45243;-78
2022/06/13 06:45:24;;;;;;;;;10.33;9.67;;;;;16.83;64.95;101941.22;5079904;27;45194;-79
2022/06/13 06:47:50;;;;;;;;;10.67;9.00;;;;;16.92;65.44;101944.63;5095518;27;45805;-78
2022/06/13 06:50:24;;;;;;;;;9.00;8.33;;;;;16.95;64.75;101930.84;5079634;28;45345;-78
2022/06/13 06:52:49;;;;;;;;;10.00;9.00;;;;;17.03;64.72;101936.09;5095350;27;46756;-78
2022/06/13 07:00:49;;;;;;;;;10.00;8.00;;;;;17.22;64.06;101944.63;5079460;28;45384;-78
2022/06/13 07:03:15;;;;;;;;;9.00;8.67;;;;;17.28;63.29;101957.28;5079443;27;45468;-79
2022/06/13 07:05:40;;;;;;;;;10.00;8.33;;;;;17.33;63.88;101953.19;5105524;27;47294;-78
2022/06/13 07:08:05;;;;;;;;;11.33;10.00;;;;;17.30;63.87;101938.28;5094685;27;56032;-78
2022/06/13 07:10:31;;;;;;;;;9.00;8.33;;;;;17.45;62.98;101950.84;5094045;27;45416;-79
2022/06/13 07:12:56;;;;;;;;;11.67;10.67;;;;;17.43;63.24;101948.34;5095136;27;47058;-78
2022/06/13 07:15:22;;;;;;;;;8.00;7.67;;;;;17.48;63.75;101956.66;5094677;27;47195;-78
2022/06/13 07:17:48;;;;;;;;;9.00;6.33;;;;;17.45;62.56;101932.03;5079523;27;45437;-77
2022/06/13 07:20:14;;;;;;;;;9.67;9.00;;;;;17.67;62.64;101957.06;5079549;27;45269;-78
2022/06/13 07:22:48;;;;;;;;;7.67;6.67;;;;;17.70;62.76;101951.28;5079135;27;45799;-78
2022/06/13 07:25:23;;;;;;;;;7.67;7.00;;;;;17.85;62.46;101955.75;5079020;27;45487;-78
2022/06/13 07:27:49;;;;;;;;;9.00;6.67;;;;;17.92;62.19;101960.19;5079182;27;45455;-78
2022/06/13 07:30:16;;;;;;;;;4.00;4.00;;;;;17.99;61.43;101954.84;5095077;27;45365;-78
2022/06/13 07:32:43;;;;;;;;;8.67;7.00;;;;;18.08;60.57;101944.75;5078969;27;45543;-78
2022/06/13 07:35:16;;;;;;;;;48.75;39.00;;;;;18.22;60.46;101958.34;5079088;28;45470;-79
2022/06/13 07:40:27;;;;;;;;;7.67;6.00;;;;;18.23;59.71;101951.97;5079315;28;45363;-78
2022/06/13 07:42:59;;;;;;;;;4.00;4.00;;;;;18.38;59.76;101965.31;5094690;27;46091;-79
2022/06/13 07:45:27;;;;;;;;;6.00;6.00;;;;;18.39;58.94;101957.03;5078905;27;45300;-78
2022/06/13 07:47:54;;;;;;;;;6.00;5.00;;;;;18.52;58.56;101968.91;5079109;27;45271;-78
2022/06/13 07:50:22;;;;;;;;;8.67;7.00;;;;;18.50;58.30;101952.94;5094807;27;45462;-79
2022/06/13 07:52:48;;;;;;;;;9.67;6.67;;;;;18.57;58.16;101971.00;5078937;27;45400;-78
2022/06/13 07:55:13;;;;;;;;;6.00;6.00;;;;;18.53;57.62;101954.44;5078623;27;45552;-78
2022/06/13 07:57:39;;;;;;;;;7.67;6.33;;;;;18.69;57.92;101972.13;5078795;27;45296;-79
2022/06/13 08:00:07;;;;;;;;;14.33;14.33;;;;;18.76;57.50;101970.28;5077182;28;45376;-79
2022/06/13 08:02:34;;;;;;;;;6.33;6.33;;;;;18.79;56.04;101960.97;5078646;27;45590;-79
2022/06/13 08:05:00;;;;;;;;;5.67;5.67;;;;;18.87;54.64;101968.06;5080894;27;45338;-76
2022/06/13 08:07:26;;;;;;;;;84.75;75.25;;;;;18.95;55.17;101964.38;5078838;27;45330;-77
2022/06/13 08:09:51;;;;;;;;;28.00;22.67;;;;;18.98;55.25;101970.19;5079190;27;45324;-76
2022/06/13 08:12:19;;;;;;;;;23.33;21.67;;;;;19.08;55.44;101979.78;5083359;27;45496;-75
2022/06/13 08:14:47;;;;;;;;;8.33;8.33;;;;;19.12;55.00;101971.09;5088980;27;45322;-75
2022/06/13 08:17:19;;;;;;;;;7.00;5.00;;;;;19.22;54.49;101968.03;5082491;28;45559;-75
2022/06/13 08:19:44;;;;;;;;;4.00;4.00;;;;;19.30;54.90;101977.78;5078620;27;45283;-75
2022/06/13 08:22:10;;;;;;;;;7.33;7.00;;;;;19.37;54.43;101977.81;5091890;27;46117;-76
2022/06/13 08:24:35;;;;;;;;;11.00;11.00;;;;;19.30;54.43;101962.44;5069815;28;47015;-75
2022/06/13 08:27:01;;;;;;;;;29.67;27.33;;;;;19.45;54.28;101979.50;5083819;27;45300;-75
2022/06/13 08:29:26;;;;;;;;;7.33;7.33;;;;;19.44;54.28;101957.09;5098393;27;45378;-76
2022/06/13 08:31:52;;;;;;;;;5.00;5.00;;;;;19.54;53.96;101968.31;5098599;27;45878;-77
2022/06/13 08:34:17;;;;;;;;;8.00;8.00;;;;;19.63;54.46;101973.53;5081716;27;45853;-78
2022/06/13 08:36:43;;;;;;;;;6.00;5.33;;;;;19.60;53.55;101957.75;5081852;27;45357;-76
2022/06/13 08:39:08;;;;;;;;;7.33;7.33;;;;;19.69;53.41;101969.97;5082228;27;45331;-76
2022/06/13 08:41:58;;;;;;;;;4.33;4.33;;;;;19.76;53.10;101975.38;5081836;27;45419;-76
2022/06/13 08:44:52;;;;;;;;;6.00;6.00;;;;;19.76;52.76;101978.94;5096469;27;47273;-76
2022/06/13 08:47:23;;;;;;;;;15.67;15.00;;;;;19.81;52.97;101972.88;5085266;27;45317;-76
2022/06/13 08:50:07;;;;;;;;;6.00;6.00;;;;;19.88;52.86;101972.91;5084916;28;45294;-77
2022/06/13 08:52:44;;;;;;;;;4.67;4.00;;;;;19.95;53.03;101973.72;5080269;28;46249;-76
2022/06/13 08:55:17;;;;;;;;;5.00;4.00;;;;;19.93;51.69;101956.91;5081351;27;45452;-76
2022/06/13 08:57:51;;;;;;;;;2.33;2.33;;;;;20.12;50.74;101981.44;5081376;27;45405;-76
2022/06/13 09:00:20;;;;;;;;;5.67;3.67;;;;;20.15;50.37;101973.78;5081258;28;45259;-77
2022/06/13 09:03:06;;;;;;;;;5.67;4.00;;;;;20.20;49.80;101975.81;5081407;27;45339;-76
2022/06/13 09:05:43;;;;;;;;;7.00;6.00;;;;;20.16;50.59;101963.78;5095802;27;45416;-75
2022/06/13 09:08:19;;;;;;;;;8.00;6.33;;;;;20.25;50.73;101970.63;5081098;27;45440;-78
2022/06/13 09:10:47;;;;;;;;;4.00;4.00;;;;;20.28;50.54;101980.19;5076428;28;45361;-76
2022/06/13 09:13:22;;;;;;;;;6.00;6.00;;;;;20.28;50.32;101977.47;5081553;28;45343;-75
2022/06/13 09:15:54;;;;;;;;;4.33;4.33;;;;;20.20;50.14;101970.41;5080903;27;45324;-74
2022/06/13 09:18:29;;;;;;;;;3.67;3.33;;;;;20.29;48.92;101985.38;5081601;27;45293;-75
2022/06/13 09:21:09;;;;;;;;;6.00;4.67;;;;;20.39;49.33;101984.13;5080968;27;45421;-76
2022/06/13 09:23:48;;;;;;;;;9.00;9.00;;;;;20.50;49.00;101977.25;5081275;27;45322;-76
2022/06/13 09:26:23;;;;;;;;;5.00;4.00;;;;;20.56;49.12;101982.63;5080771;27;45414;-76
2022/06/13 09:29:04;;;;;;;;;4.33;4.00;;;;;20.64;49.02;101976.16;5095372;27;45296;-75
2022/06/13 09:31:50;;;;;;;;;8.67;8.67;;;;;20.76;48.91;101979.03;5078141;28;45244;-76
2022/06/13 09:34:21;;;;;;;;;5.00;4.00;;;;;20.93;48.55;101981.31;5076567;28;47640;-76
2022/06/13 09:37:00;;;;;;;;;5.33;5.33;;;;;20.99;47.97;101966.09;5080820;27;45297;-76
2022/06/13 09:39:25;;;;;;;;;7.00;5.33;;;;;21.07;47.44;101976.66;5071396;27;45213;-75
2022/06/13 09:42:07;;;;;;;;;6.33;6.00;;;;;21.05;46.52;101971.50;5081851;27;46271;-76
2022/06/13 09:44:39;;;;;;;;;4.00;4.00;;;;;21.14;45.50;101982.03;5081301;28;45395;-76
2022/06/13 09:47:44;;;;;;;;;4.67;4.67;;;;;21.19;46.42;101980.34;5079544;27;47837;-75
2022/06/13 09:50:22;;;;;;;;;3.33;3.33;;;;;21.35;44.42;101985.47;5083588;27;45312;-75
2022/06/13 09:53:26;;;;;;;;;2.00;2.00;;;;;21.41;45.05;101979.19;5080887;27;45358;-75
2022/06/13 09:55:58;;;;;;;;;4.00;4.00;;;;;21.46;44.86;101976.66;5081710;27;45391;-75
2022/06/13 09:59:04;;;;;;;;;5.00;4.00;;;;;21.50;43.54;101971.66;5079046;27;46866;-76
2022/06/13 10:01:32;;;;;;;;;5.00;3.00;;;;;21.54;44.03;101981.81;5054044;27;45485;-76
2022/06/13 10:04:12;;;;;;;;;3.33;3.33;;;;;21.60;43.95;101973.84;5082170;27;45380;-76
2022/06/13 10:06:43;;;;;;;;;4.67;4.67;;;;;21.76;44.12;101977.97;5085134;27;46330;-76
2022/06/13 10:09:48;;;;;;;;;2.33;2.33;;;;;21.85;42.66;101973.09;5077407;28;46172;-78
2022/06/13 10:12:43;;;;;;;;;4.67;3.33;;;;;21.97;42.97;101974.06;5080535;27;45248;-76
2022/06/13 10:15:15;;;;;;;;;3.33;3.33;;;;;22.11;43.21;101971.19;5096331;27;45174;-78
2022/06/13 10:17:52;;;;;;;;;4.00;2.67;;;;;22.19;42.55;101970.94;5080278;27;45282;-76
2022/06/13 10:20:39;;;;;;;;;8.33;6.67;;;;;22.19;42.33;101955.53;5081111;28;47170;-77
2022/06/13 10:23:24;;;;;;;;;4.00;4.00;;;;;22.49;41.18;101978.34;5084305;28;45225;-76
2022/06/13 10:25:58;;;;;;;;;4.67;4.67;;;;;22.60;40.66;101974.09;5081150;28;45321;-78
2022/06/13 10:28:48;;;;;;;;;8.67;7.67;;;;;22.73;41.35;101966.84;5082248;27;45465;-76
2022/06/13 10:31:15;;;;;;;;;9.00;9.00;;;;;22.86;41.09;101972.09;5079672;28;45362;-78
2022/06/13 10:33:53;;;;;;;;;4.00;3.33;;;;;23.04;40.27;101976.66;5079123;28;45366;-78
2022/06/13 10:36:39;;;;;;;;;4.00;2.67;;;;;23.13;39.65;101962.81;5073924;27;45544;-77
2022/06/13 10:39:17;;;;;;;;;5.67;4.00;;;;;23.29;39.93;101969.47;5077104;27;45398;-78
2022/06/13 10:41:46;;;;;;;;;3.00;3.00;;;;;23.41;40.41;101970.34;5079283;27;45508;-79
2022/06/13 10:44:15;;;;;;;;;4.33;4.33;;;;;23.52;39.92;101957.88;5079132;28;46053;-78
2022/06/13 10:46:49;;;;;;;;;4.00;4.00;;;;;23.71;39.79;101974.09;5082920;27;45366;-77
2022/06/13 10:49:28;;;;;;;;;7.00;5.67;;;;;23.83;39.12;101964.06;5080004;27;45460;-76
2022/06/13 10:52:02;;;;;;;;;31.67;30.33;;;;;24.06;39.15;101967.84;5080628;28;45462;-77
2022/06/13 10:54:37;;;;;;;;;6.00;6.00;;;;;24.30;39.31;101969.78;5066743;28;45282;-76
2022/06/13 10:57:10;;;;;;;;;6.00;5.00;;;;;24.57;38.69;101974.72;5079645;28;45509;-78
2022/06/13 10:59:38;;;;;;;;;3.00;3.00;;;;;24.74;38.34;101958.47;5101983;27;46208;-77
2022/06/13 11:02:25;;;;;;;;;4.00;4.00;;;;;24.94;38.25;101971.69;5079670;27;45396;-76
2022/06/13 11:05:16;;;;;;;;;6.00;4.33;;;;;24.96;37.92;101957.84;5087012;27;45386;-76
2022/06/13 11:07:47;;;;;;;;;22.00;21.00;;;;;25.07;37.90;101977.88;5078580;28;45277;-78
2022/06/13 11:10:22;;;;;;;;;6.00;5.67;;;;;25.09;36.88;101975.75;5079068;28;45456;-76
2022/06/13 11:12:51;;;;;;;;;4.33;3.00;;;;;25.14;36.41;101978.56;5079162;28;45343;-76
2022/06/13 11:24:24;;;;;;;;;5.00;4.00;;;;;25.78;35.99;101965.81;5079186;28;45356;-77
2022/06/13 11:29:35;;;;;;;;;3.00;3.00;;;;;25.76;36.43;101962.50;5079351;28;45350;-77
2022/06/13 11:32:05;;;;;;;;;3.00;2.00;;;;;25.80;36.26;101957.41;5078722;28;45484;-77
2022/06/13 11:34:33;;;;;;;;;6.00;4.00;;;;;25.79;35.29;101948.41;5079201;27;46347;-77
2022/06/13 11:37:17;;;;;;;;;4.00;4.00;;;;;25.87;35.22;101951.78;5079530;27;45414;-76
2022/06/13 11:39:48;;;;;;;;;5.67;5.67;;;;;25.96;35.61;101958.44;5079174;27;45208;-77
2022/06/13 11:42:13;;;;;;;;;4.33;4.33;;;;;26.09;35.41;101965.44;5079166;27;45361;-75
2022/06/13 11:44:44;;;;;;;;;4.00;4.00;;;;;26.16;35.43;101959.84;5078658;28;46131;-76
2022/06/13 11:47:10;;;;;;;;;5.00;4.00;;;;;26.19;34.47;101959.34;5077385;28;45531;-76
2022/06/13 11:49:43;;;;;;;;;6.00;6.00;;;;;26.14;34.89;101953.78;5077855;28;45332;-77
2022/06/13 11:52:11;;;;;;;;;4.00;2.67;;;;;26.17;35.21;101953.28;5078794;27;45426;-78
2022/06/13 11:54:41;;;;;;;;;4.00;3.67;;;;;26.20;34.59;101953.63;5077563;27;47393;-78
2022/06/13 11:57:18;;;;;;;;;2.00;2.00;;;;;26.31;33.66;101953.81;5080028;27;45287;-76
2022/06/13 12:00:04;;;;;;;;;3.00;3.00;;;;;26.41;33.30;101948.47;5082550;27;45334;-76
2022/06/13 12:02:41;;;;;;;;;3.00;3.00;;;;;26.58;34.48;101944.88;5082244;27;45268;-77
2022/06/13 12:05:22;;;;;;;;;3.33;3.33;;;;;26.79;33.37;101934.19;5092663;27;45358;-76
2022/06/13 12:08:02;;;;;;;;;7.00;3.33;;;;;26.82;33.19;101939.94;5080881;27;46007;-78
2022/06/13 12:10:35;;;;;;;;;5.67;5.00;;;;;26.85;33.74;101935.91;5082329;27;45447;-78
2022/06/13 12:13:01;;;;;;;;;6.67;5.00;;;;;26.96;33.82;101925.91;5096852;27;46267;-77